createdAt,value
2023-01-10T00:00:56.805Z,100249.63
2023-01-10T00:03:23.818Z,100254.16
2023-01-10T00:05:50.716Z,100264.38
2023-01-10T00:08:18.335Z,100256.84
2023-01-10T00:10:45.155Z,100268.56
2023-01-10T00:13:26.110Z,100267.19
2023-01-10T00:15:55.201Z,100271.72
2023-01-10T00:18:22.866Z,100269.28
2023-01-10T00:20:50.241Z,100274.84
2023-01-10T00:23:18.646Z,100289.91
2023-01-10T00:25:46.925Z,100273.22
2023-01-10T00:28:20.085Z,100270.81
2023-01-10T00:31:01.250Z,100272.19
2023-01-10T00:33:31.702Z,100270.22
2023-01-10T00:36:04.149Z,100276.38
2023-01-10T00:38:33.232Z,100277.44
2023-01-10T00:41:00.756Z,100275.22
2023-01-10T00:43:46.420Z,100278.94
2023-01-10T00:46:13.425Z,100283.00
2023-01-10T00:48:41.737Z,100282.19
2023-01-10T00:51:08.563Z,100289.97
2023-01-10T00:53:35.604Z,100297.25
2023-01-10T00:56:02.518Z,100297.13
2023-01-10T00:58:29.531Z,100302.44
2023-01-10T01:00:56.471Z,100299.69
2023-01-10T01:03:23.363Z,100306.16
2023-01-10T01:05:51.038Z,100312.41
2023-01-10T01:08:19.317Z,100313.47
2023-01-10T01:10:46.773Z,100326.34
2023-01-10T01:13:21.995Z,100331.09
2023-01-10T01:15:49.317Z,100341.88
2023-01-10T01:18:21.048Z,100350.69
2023-01-10T01:20:53.464Z,100346.41
2023-01-10T01:23:20.615Z,100355.56
2023-01-10T01:25:51.792Z,100375.63
2023-01-10T01:28:19.378Z,100372.47
2023-01-10T01:30:47.202Z,100377.81
2023-01-10T01:33:14.782Z,100395.13
2023-01-10T01:35:44.371Z,100386.56
2023-01-10T01:38:12.130Z,100392.13
2023-01-10T01:40:41.381Z,100416.41
2023-01-10T01:43:29.404Z,100407.34
2023-01-10T01:46:02.953Z,100409.09
2023-01-10T01:48:42.965Z,100410.38
2023-01-10T01:51:23.113Z,100422.69
2023-01-10T01:53:55.278Z,100416.53
2023-01-10T01:56:51.997Z,100423.50
2023-01-10T01:59:30.741Z,100440.31
2023-01-10T02:02:14.644Z,100439.50
2023-01-10T02:04:52.555Z,100433.34
2023-01-10T02:07:20.763Z,100445.31
2023-01-10T02:10:06.682Z,100453.91
2023-01-10T02:12:34.508Z,100449.50
2023-01-10T02:15:04.033Z,100442.31
2023-01-10T02:17:30.885Z,100446.97
2023-01-10T02:20:03.878Z,100455.44
2023-01-10T02:23:13.595Z,100458.34
2023-01-10T02:25:46.490Z,100461.13
2023-01-10T02:28:53.659Z,100461.81
2023-01-10T02:31:59.032Z,100472.03
2023-01-10T02:34:40.026Z,100478.66
2023-01-10T02:37:23.425Z,100476.19
2023-01-10T02:39:59.096Z,100480.13
2023-01-10T02:42:36.977Z,100478.28
2023-01-10T02:45:12.903Z,100474.22
2023-01-10T02:47:41.515Z,100480.81
2023-01-10T02:50:44.979Z,100486.50
2023-01-10T02:53:21.486Z,100489.19
2023-01-10T02:56:08.147Z,100498.00
2023-01-10T02:59:15.239Z,100490.81
2023-01-10T03:02:02.326Z,100502.75
2023-01-10T03:05:09.598Z,100507.97
2023-01-10T03:07:55.877Z,100510.75
2023-01-10T03:10:34.109Z,100524.44
2023-01-10T03:13:14.168Z,100532.22
2023-01-10T03:15:42.463Z,100534.06
2023-01-10T03:18:16.617Z,100546.25
2023-01-10T03:20:47.148Z,100554.63
2023-01-10T03:23:16.961Z,100559.06
2023-01-10T03:25:46.315Z,100563.00
2023-01-10T03:28:26.646Z,100559.88
2023-01-10T03:31:11.819Z,100561.50
2023-01-10T03:33:40.177Z,100567.06
2023-01-10T03:36:45.916Z,100586.09
2023-01-10T03:39:21.398Z,100579.13
2023-01-10T03:42:19.368Z,100584.47
2023-01-10T03:45:01.950Z,100575.66
2023-01-10T03:47:38.769Z,100577.75
2023-01-10T03:50:27.014Z,100590.84
2023-01-10T03:52:53.859Z,100600.25
2023-01-10T03:55:26.845Z,100600.50
2023-01-10T03:57:53.906Z,100609.91
2023-01-10T04:00:21.551Z,100613.72
2023-01-10T04:02:48.671Z,100626.03
2023-01-10T04:05:15.803Z,100628.13
2023-01-10T04:07:42.709Z,100633.00
2023-01-10T04:10:10.735Z,100634.63
2023-01-10T04:12:37.750Z,100636.72
2023-01-10T04:15:05.672Z,100648.78
2023-01-10T04:17:32.584Z,100654.13
2023-01-10T04:19:59.522Z,100664.09
2023-01-10T04:22:26.747Z,100670.84
2023-01-10T04:24:54.524Z,100669.56
2023-01-10T04:27:21.482Z,100678.63
2023-01-10T04:29:48.959Z,100676.53
2023-01-10T04:32:16.001Z,100688.84
2023-01-10T04:34:42.914Z,100689.88
2023-01-10T04:37:09.888Z,100714.50
2023-01-10T04:39:36.965Z,100719.38
2023-01-10T04:42:03.889Z,100723.31
2023-01-10T04:44:31.056Z,100722.75
2023-01-10T04:46:57.981Z,100720.66
2023-01-10T04:49:25.143Z,100721.00
2023-01-10T04:51:51.987Z,100731.91
2023-01-10T04:54:23.108Z,100737.25
2023-01-10T04:56:50.192Z,100743.88
2023-01-10T04:59:17.510Z,100750.59
2023-01-10T05:01:44.674Z,100754.56
2023-01-10T05:04:12.313Z,100757.69
2023-01-10T05:06:40.197Z,100758.94
2023-01-10T05:09:08.905Z,100764.88
2023-01-10T05:11:35.833Z,100779.03
2023-01-10T05:14:03.181Z,100773.09
2023-01-10T05:16:30.309Z,100784.81
2023-01-10T05:18:57.291Z,100788.31
2023-01-10T05:21:24.605Z,100797.72
2023-01-10T05:23:51.449Z,100806.31
2023-01-10T05:26:22.344Z,100809.34
2023-01-10T05:28:49.732Z,100810.97
2023-01-10T05:31:19.761Z,100821.31
2023-01-10T05:33:51.888Z,100827.81
2023-01-10T05:36:20.118Z,100833.38
2023-01-10T05:38:47.388Z,100826.06
2023-01-10T05:41:14.848Z,100831.97
2023-01-10T05:43:41.890Z,100841.03
2023-01-10T05:46:09.468Z,100849.63
2023-01-10T05:48:37.019Z,100854.75
2023-01-10T05:51:04.123Z,100850.44
2023-01-10T05:53:31.124Z,100853.72
2023-01-10T05:56:00.901Z,100854.53
2023-01-10T05:58:29.588Z,100870.31
2023-01-10T06:00:58.236Z,100863.34
2023-01-10T06:03:26.432Z,100872.75
2023-01-10T06:05:57.321Z,100873.22
2023-01-10T06:08:25.593Z,100874.63
2023-01-10T06:10:53.155Z,100884.25
2023-01-10T06:13:20.193Z,100893.09
2023-01-10T06:15:47.256Z,100887.97
2023-01-10T06:18:14.659Z,100907.47
2023-01-10T06:20:43.417Z,100905.63
2023-01-10T06:23:10.805Z,100913.41
2023-01-10T06:25:40.651Z,100922.59
2023-01-10T06:28:13.571Z,100926.91
2023-01-10T06:30:43.382Z,100928.16
2023-01-10T06:33:12.186Z,100940.84
2023-01-10T06:35:39.642Z,100946.19
2023-01-10T06:38:06.674Z,100948.41
2023-01-10T06:40:33.884Z,100953.75
2023-01-10T06:43:00.952Z,100951.09
2023-01-10T06:45:28.092Z,100952.50
2023-01-10T06:47:55.258Z,100947.38
2023-01-10T06:50:22.703Z,100968.75
2023-01-10T06:52:58.568Z,100975.56
2023-01-10T06:55:26.740Z,100964.75
2023-01-10T06:58:02.067Z,100969.03
2023-01-10T07:00:30.224Z,100987.16
2023-01-10T07:03:02.477Z,100990.63
2023-01-10T07:05:30.583Z,100995.16
2023-01-10T07:07:58.990Z,100997.25
2023-01-10T07:10:25.965Z,101000.94
2023-01-10T07:12:55.802Z,101008.16
2023-01-10T07:15:22.890Z,101001.75
2023-01-10T07:17:50.350Z,101017.56
2023-01-10T07:20:17.993Z,101018.59
2023-01-10T07:22:45.087Z,101027.66
2023-01-10T07:25:12.117Z,101025.44
2023-01-10T07:27:43.198Z,101025.06
2023-01-10T07:30:11.263Z,101017.84
2023-01-10T07:32:38.555Z,101029.81
2023-01-10T07:35:05.752Z,101038.41
2023-01-10T07:37:33.029Z,101047.22
2023-01-10T07:39:59.901Z,101060.22
2023-01-10T07:42:27.003Z,101066.38
2023-01-10T07:44:53.872Z,101064.34
2023-01-10T07:47:21.045Z,101072.53
2023-01-10T07:49:47.996Z,101092.03
2023-01-10T07:52:15.139Z,101085.44
2023-01-10T07:54:42.398Z,101100.19
2023-01-10T07:57:09.271Z,101097.16
2023-01-10T07:59:36.238Z,101101.66
2023-01-10T08:02:03.129Z,101103.91
2023-01-10T08:04:30.140Z,101112.28
2023-01-10T08:06:57.039Z,101112.88
2023-01-10T08:09:23.936Z,101110.16
2023-01-10T08:11:51.103Z,101119.81
2023-01-10T08:14:18.013Z,101112.59
2023-01-10T08:16:45.386Z,101115.88
2023-01-10T08:19:16.644Z,101128.56
2023-01-10T08:21:44.401Z,101137.19
2023-01-10T08:24:11.390Z,101140.44
2023-01-10T08:26:38.698Z,101144.75
2023-01-10T08:29:05.660Z,101141.41
2023-01-10T08:31:32.837Z,101133.63
2023-01-10T08:33:59.928Z,101147.13
2023-01-10T08:36:28.844Z,101159.63
2023-01-10T08:38:56.378Z,101145.44
2023-01-10T08:41:23.455Z,101147.06
2023-01-10T08:43:50.819Z,101165.47
2023-01-10T08:46:20.105Z,101172.69
2023-01-10T08:48:50.165Z,101164.06
2023-01-10T08:51:17.800Z,101179.63
2023-01-10T08:53:45.051Z,101175.91
2023-01-10T08:56:12.298Z,101166.63
2023-01-10T08:58:39.312Z,101163.53
2023-01-10T09:01:08.138Z,101170.50
2023-01-10T09:03:35.615Z,101180.75
2023-01-10T09:06:02.775Z,101189.16
2023-01-10T09:08:29.769Z,101196.88
2023-01-10T09:11:02.720Z,101183.19
2023-01-10T09:13:30.589Z,101197.31
2023-01-10T09:15:58.736Z,101193.97
2023-01-10T09:18:26.757Z,101196.19
2023-01-10T09:20:54.337Z,101197.38
2023-01-10T09:23:23.321Z,101211.63
2023-01-10T09:25:54.627Z,101205.13
2023-01-10T09:28:24.178Z,101218.97
2023-01-10T09:30:51.469Z,101206.06
2023-01-10T09:33:19.171Z,101203.75
2023-01-10T09:35:46.320Z,101204.66
2023-01-10T09:38:19.110Z,101217.38
2023-01-10T09:40:51.658Z,101216.91
2023-01-10T09:44:05.919Z,101223.09
2023-01-10T09:46:58.997Z,101222.16
2023-01-10T09:49:52.580Z,101224.50
2023-01-10T09:52:35.204Z,101231.59
2023-01-10T09:55:19.046Z,101235.91
2023-01-10T09:57:46.464Z,101233.34
2023-01-10T10:00:24.215Z,101232.06
2023-01-10T10:02:53.318Z,101235.22
2023-01-10T10:05:24.987Z,101235.22
2023-01-10T10:08:02.341Z,101242.09
2023-01-10T10:10:39.256Z,101238.25
2023-01-10T10:13:28.983Z,101236.84
2023-01-10T10:16:14.338Z,101250.97
2023-01-10T10:19:16.459Z,101243.50
2023-01-10T10:22:19.740Z,101242.31
2023-01-10T10:25:29.060Z,101245.94
2023-01-10T10:27:55.809Z,101243.25
2023-01-10T10:30:57.974Z,101249.91
2023-01-10T10:34:14.801Z,101257.38
2023-01-10T10:37:01.319Z,101253.19
2023-01-10T10:39:43.484Z,101257.97
2023-01-10T10:42:16.990Z,101258.66
2023-01-10T10:44:50.665Z,101266.72
2023-01-10T10:47:21.367Z,101264.38
2023-01-10T10:50:15.833Z,101277.66
2023-01-10T10:52:44.822Z,101279.66
2023-01-10T10:55:23.374Z,101280.47
2023-01-10T10:57:59.748Z,101284.66
2023-01-10T11:00:29.304Z,101284.66
2023-01-10T11:03:06.022Z,101288.38
2023-01-10T11:05:37.254Z,101285.59
2023-01-10T11:08:10.097Z,101304.47
2023-01-10T11:10:39.218Z,101308.66
2023-01-10T11:13:32.565Z,101299.97
2023-01-10T11:16:05.715Z,101305.44
2023-01-10T11:18:33.757Z,101306.38
2023-01-10T11:21:14.738Z,101299.44
2023-01-10T11:23:53.585Z,101293.25
2023-01-10T11:26:41.131Z,101278.59
2023-01-10T11:29:34.911Z,101279.88
2023-01-10T11:32:14.993Z,101279.06
2023-01-10T11:34:50.342Z,101290.94
2023-01-10T11:37:18.708Z,101299.50
2023-01-10T11:39:45.887Z,101300.81
2023-01-10T11:42:30.624Z,101293.97
2023-01-10T11:45:19.601Z,101288.03
2023-01-10T11:48:30.152Z,101294.94
2023-01-10T11:51:31.664Z,101283.94
2023-01-10T11:54:05.716Z,101305.63
2023-01-10T11:56:36.164Z,101302.69
2023-01-10T11:59:19.042Z,101309.31
2023-01-10T12:02:04.975Z,101302.66
2023-01-10T12:04:40.806Z,101304.13
2023-01-10T12:07:11.527Z,101314.75
2023-01-10T12:09:45.132Z,101312.06
2023-01-10T12:12:35.471Z,101303.00
2023-01-10T12:15:30.378Z,101299.63
2023-01-10T12:18:05.471Z,101299.19
2023-01-10T12:20:52.760Z,101312.72
2023-01-10T12:23:22.902Z,101311.22
2023-01-10T12:25:55.245Z,101303.41
2023-01-10T12:28:32.094Z,101310.38
2023-01-10T12:31:01.273Z,101312.00
2023-01-10T12:33:46.541Z,101313.00
2023-01-10T12:36:28.935Z,101301.41
2023-01-10T12:39:16.243Z,101299.22
2023-01-10T12:42:16.438Z,101317.66
2023-01-10T12:44:46.605Z,101321.41
2023-01-10T12:47:32.491Z,101307.81
2023-01-10T12:50:20.953Z,101320.38
2023-01-10T12:53:25.762Z,101325.09
2023-01-10T12:55:58.161Z,101326.56
2023-01-10T12:58:45.194Z,101320.72
2023-01-10T13:01:15.813Z,101334.91
2023-01-10T13:03:44.607Z,101330.41
2023-01-10T13:06:27.774Z,101345.06
2023-01-10T13:08:58.020Z,101353.91
2023-01-10T13:11:30.445Z,101353.25
2023-01-10T13:14:01.198Z,101357.94
2023-01-10T13:16:40.163Z,101352.84
2023-01-10T13:19:10.190Z,101366.31
2023-01-10T13:21:42.328Z,101361.31
2023-01-10T13:24:15.117Z,101368.81
2023-01-10T13:27:01.804Z,101365.88
2023-01-10T13:29:41.330Z,101371.97
2023-01-10T13:32:29.157Z,101380.44
2023-01-10T13:35:19.523Z,101382.06
2023-01-10T13:37:55.364Z,101380.19
2023-01-10T13:40:30.240Z,101372.56
2023-01-10T13:43:36.370Z,101382.22
2023-01-10T13:46:15.242Z,101393.91
2023-01-10T13:49:03.624Z,101386.84
2023-01-10T13:51:32.034Z,101389.38
2023-01-10T13:54:04.677Z,101376.53
2023-01-10T13:56:36.973Z,101388.38
2023-01-10T13:59:41.910Z,101401.41
2023-01-10T14:02:29.338Z,101393.16
2023-01-10T14:05:08.148Z,101390.31
2023-01-10T14:07:50.242Z,101395.75
2023-01-10T14:10:25.600Z,101399.94
2023-01-10T14:12:58.645Z,101377.31
2023-01-10T14:15:45.823Z,101394.56
2023-01-10T14:18:25.039Z,101397.41
2023-01-10T14:21:02.675Z,101396.06
2023-01-10T14:23:43.626Z,101403.19
2023-01-10T14:26:32.684Z,101397.59
2023-01-10T14:29:09.816Z,101398.44
2023-01-10T14:31:38.602Z,101390.69
2023-01-10T14:34:11.921Z,101393.81
2023-01-10T14:36:52.109Z,101387.88
2023-01-10T14:39:20.215Z,101386.69
2023-01-10T14:41:53.620Z,101385.34
2023-01-10T14:44:32.912Z,101380.28
2023-01-10T14:47:04.488Z,101382.22
2023-01-10T14:49:35.940Z,101393.78
2023-01-10T14:52:24.729Z,101392.44
2023-01-10T14:55:03.797Z,101413.91
2023-01-10T14:57:30.936Z,101396.72
2023-01-10T15:00:17.753Z,101402.50
2023-01-10T15:02:49.149Z,101400.69
2023-01-10T15:05:21.721Z,101386.09
2023-01-10T15:07:48.564Z,101398.22
2023-01-10T15:10:33.884Z,101396.44
2023-01-10T15:13:05.658Z,101379.63
2023-01-10T15:15:38.368Z,101384.59
2023-01-10T15:18:30.664Z,101393.88
2023-01-10T15:20:58.169Z,101401.78
2023-01-10T15:23:28.263Z,101398.34
2023-01-10T15:25:59.336Z,101406.19
2023-01-10T15:28:30.100Z,101407.00
2023-01-10T15:30:58.495Z,101418.53
2023-01-10T15:33:29.745Z,101410.34
2023-01-10T15:36:03.824Z,101405.03
2023-01-10T15:38:34.310Z,101413.06
2023-01-10T15:41:06.067Z,101414.50
2023-01-10T15:43:36.935Z,101406.31
2023-01-10T15:46:06.225Z,101419.91
2023-01-10T15:48:37.659Z,101423.38
2023-01-10T15:51:14.548Z,101420.72
2023-01-10T15:54:04.024Z,101417.84
2023-01-10T15:56:54.277Z,101424.38
2023-01-10T15:59:33.107Z,101430.97
2023-01-10T16:02:16.941Z,101417.63
2023-01-10T16:04:46.383Z,101422.34
2023-01-10T16:07:30.587Z,101428.72
2023-01-10T16:10:09.234Z,101424.03
2023-01-10T16:12:59.995Z,101415.03
2023-01-10T16:15:35.345Z,101426.53
2023-01-10T16:18:03.013Z,101420.78
2023-01-10T16:20:32.199Z,101421.00
2023-01-10T16:23:01.030Z,101418.75
2023-01-10T16:25:33.183Z,101412.16
2023-01-10T16:28:00.726Z,101417.50
2023-01-10T16:30:32.166Z,101406.22
2023-01-10T16:33:06.169Z,101406.00
2023-01-10T16:35:33.189Z,101406.22
2023-01-10T16:38:01.032Z,101399.03
2023-01-10T16:40:43.551Z,101404.97
2023-01-10T16:43:25.495Z,101402.94
2023-01-10T16:45:59.753Z,101406.00
2023-01-10T16:48:32.344Z,101410.75
2023-01-10T16:51:24.174Z,101412.81
2023-01-10T16:53:51.998Z,101415.50
2023-01-10T16:56:22.754Z,101421.88
2023-01-10T16:58:52.009Z,101419.22
2023-01-10T17:01:29.897Z,101429.69
2023-01-10T17:03:58.142Z,101425.19
2023-01-10T17:06:25.076Z,101427.66
2023-01-10T17:08:51.901Z,101421.09
2023-01-10T17:11:27.997Z,101413.47
2023-01-10T17:13:55.481Z,101405.72
2023-01-10T17:16:22.412Z,101413.50
2023-01-10T17:18:49.675Z,101420.31
2023-01-10T17:21:20.043Z,101409.03
2023-01-10T17:23:47.919Z,101407.81
2023-01-10T17:26:18.030Z,101410.69
2023-01-10T17:28:46.473Z,101415.41
2023-01-10T17:31:13.543Z,101417.28
2023-01-10T17:33:40.478Z,101425.31
2023-01-10T17:36:08.673Z,101427.16
2023-01-10T17:38:38.996Z,101422.25
2023-01-10T17:41:07.410Z,101424.28
2023-01-10T17:43:34.596Z,101416.06
2023-01-10T17:46:05.799Z,101425.53
2023-01-10T17:48:34.830Z,101423.47
2023-01-10T17:51:03.617Z,101418.97
2023-01-10T17:53:31.315Z,101422.47
2023-01-10T17:56:00.101Z,101412.00
2023-01-10T17:58:28.555Z,101415.06
2023-01-10T18:00:55.981Z,101426.78
2023-01-10T18:03:23.102Z,101414.25
2023-01-10T18:05:55.737Z,101425.13
2023-01-10T18:08:23.028Z,101424.72
2023-01-10T18:10:50.892Z,101417.75
2023-01-10T18:13:22.821Z,101433.34
2023-01-10T18:15:50.427Z,101429.47
2023-01-10T18:18:19.089Z,101423.50
2023-01-10T18:20:45.987Z,101409.78
2023-01-10T18:23:21.106Z,101415.31
2023-01-10T18:26:05.108Z,101416.34
2023-01-10T18:28:41.790Z,101413.28
2023-01-10T18:31:13.699Z,101410.00
2023-01-10T18:33:40.907Z,101410.00
2023-01-10T18:36:14.827Z,101418.41
2023-01-10T18:38:42.692Z,101413.28
2023-01-10T18:41:09.709Z,101408.16
2023-01-10T18:43:36.601Z,101401.81
2023-01-10T18:46:11.261Z,101402.41
2023-01-10T18:48:38.776Z,101400.19
2023-01-10T18:51:06.763Z,101399.34
2023-01-10T18:53:33.784Z,101395.06
2023-01-10T18:56:04.660Z,101392.78
2023-01-10T18:58:38.752Z,101397.72
2023-01-10T19:01:18.101Z,101394.00
2023-01-10T19:03:46.749Z,101394.00
2023-01-10T19:06:16.412Z,101400.56
2023-01-10T19:08:45.981Z,101395.63
2023-01-10T19:11:16.047Z,101395.63
2023-01-10T19:13:45.521Z,101384.78
2023-01-10T19:16:15.384Z,101382.53
2023-01-10T19:18:43.667Z,101385.59
2023-01-10T19:21:17.078Z,101390.31
2023-01-10T19:23:46.726Z,101383.53
2023-01-10T19:26:14.906Z,101373.91
2023-01-10T19:28:43.855Z,101368.97
2023-01-10T19:31:20.143Z,101383.13
2023-01-10T19:33:48.104Z,101375.75
2023-01-10T19:36:15.868Z,101372.88
2023-01-10T19:38:43.042Z,101374.50
2023-01-10T19:41:10.931Z,101357.69
2023-01-10T19:43:37.831Z,101364.06
2023-01-10T19:46:09.731Z,101359.94
2023-01-10T19:48:38.160Z,101359.72
2023-01-10T19:51:13.433Z,101360.56
2023-01-10T19:53:44.301Z,101341.09
2023-01-10T19:56:13.891Z,101351.75
2023-01-10T19:58:41.018Z,101346.00
2023-01-10T20:01:13.393Z,101356.03
2023-01-10T20:03:42.613Z,101341.88
2023-01-10T20:06:14.266Z,101347.00
2023-01-10T20:08:41.846Z,101345.75
2023-01-10T20:11:08.891Z,101341.03
2023-01-10T20:13:39.875Z,101336.91
2023-01-10T20:16:07.504Z,101333.84
2023-01-10T20:18:34.396Z,101337.91
2023-01-10T20:21:06.746Z,101327.47
2023-01-10T20:23:38.454Z,101327.06
2023-01-10T20:26:15.010Z,101323.97
2023-01-10T20:28:42.944Z,101319.47
2023-01-10T20:31:17.051Z,101327.81
2023-01-10T20:33:44.036Z,101315.31
2023-01-10T20:36:15.611Z,101329.44
2023-01-10T20:38:43.006Z,101320.81
2023-01-10T20:41:16.680Z,101315.72
2023-01-10T20:43:44.514Z,101315.09
2023-01-10T20:46:15.093Z,101316.09
2023-01-10T20:48:42.506Z,101311.59
2023-01-10T20:51:14.255Z,101306.06
2023-01-10T20:53:41.126Z,101315.06
2023-01-10T20:56:14.523Z,101303.38
2023-01-10T20:58:41.779Z,101307.47
2023-01-10T21:01:10.475Z,101300.72
2023-01-10T21:03:37.682Z,101302.75
2023-01-10T21:06:04.953Z,101300.91
2023-01-10T21:08:32.666Z,101318.72
2023-01-10T21:10:59.922Z,101295.81
2023-01-10T21:13:27.394Z,101304.81
2023-01-10T21:15:56.779Z,101311.34
2023-01-10T21:18:29.704Z,101308.88
2023-01-10T21:20:57.941Z,101292.09
2023-01-10T21:23:26.990Z,101295.38
2023-01-10T21:26:00.644Z,101291.28
2023-01-10T21:28:27.862Z,101290.47
2023-01-10T21:30:55.095Z,101283.09
2023-01-10T21:33:22.115Z,101279.41
2023-01-10T21:35:57.870Z,101282.88
2023-01-10T21:38:27.257Z,101280.81
2023-01-10T21:41:06.578Z,101290.84
2023-01-10T21:43:33.491Z,101273.03
2023-01-10T21:46:01.744Z,101267.91
2023-01-10T21:48:29.627Z,101269.56
2023-01-10T21:50:57.720Z,101271.59
2023-01-10T21:53:24.942Z,101261.34
2023-01-10T21:55:51.896Z,101255.66
2023-01-10T21:58:19.320Z,101262.19
2023-01-10T22:00:46.821Z,101257.06
2023-01-10T22:03:13.805Z,101257.25
2023-01-10T22:05:40.911Z,101250.47
2023-01-10T22:08:07.827Z,101250.31
2023-01-10T22:10:34.739Z,101248.47
2023-01-10T22:13:01.638Z,101240.69
2023-01-10T22:15:29.071Z,101240.91
2023-01-10T22:17:57.994Z,101229.19
2023-01-10T22:20:25.093Z,101234.53
2023-01-10T22:22:51.944Z,101232.06
2023-01-10T22:25:19.056Z,101241.50
2023-01-10T22:27:46.250Z,101234.53
2023-01-10T22:30:13.212Z,101231.09
2023-01-10T22:32:40.468Z,101230.47
2023-01-10T22:35:07.816Z,101223.31
2023-01-10T22:37:34.887Z,101222.09
2023-01-10T22:40:01.768Z,101215.16
2023-01-10T22:42:28.754Z,101219.88
2023-01-10T22:44:55.751Z,101213.31
2023-01-10T22:47:22.675Z,101205.13
2023-01-10T22:49:49.889Z,101197.56
2023-01-10T22:52:16.800Z,101201.03
2023-01-10T22:54:43.768Z,101194.72
2023-01-10T22:57:10.848Z,101191.44
2023-01-10T22:59:37.723Z,101188.59
2023-01-10T23:02:04.985Z,101195.13
2023-01-10T23:04:31.889Z,101183.28
2023-01-10T23:06:59.711Z,101176.53
2023-01-10T23:09:26.654Z,101186.53
2023-01-10T23:11:53.718Z,101180.81
2023-01-10T23:14:20.778Z,101175.31
2023-01-10T23:16:47.707Z,101166.31
2023-01-10T23:19:15.107Z,101159.75
2023-01-10T23:21:42.076Z,101150.97
2023-01-10T23:24:09.357Z,101167.34
2023-01-10T23:26:36.173Z,101157.09
2023-01-10T23:29:03.661Z,101159.34
2023-01-10T23:31:32.015Z,101158.94
2023-01-10T23:33:59.207Z,101151.16
2023-01-10T23:36:26.237Z,101153.00
2023-01-10T23:38:53.160Z,101145.44
2023-01-10T23:41:21.312Z,101130.72
2023-01-10T23:43:50.137Z,101128.66
2023-01-10T23:46:18.203Z,101121.50
2023-01-10T23:48:46.478Z,101121.09
2023-01-10T23:51:14.259Z,101115.16
2023-01-10T23:53:41.475Z,101124.16
2023-01-10T23:56:11.654Z,101117.63
2023-01-10T23:58:39.485Z,101106.56
